sensor_id;sensor_type;location;lat;lon;timestamp;P1;durP1;ratioP1;P2;durP2;ratioP2
82793;SDS011;72533;52.852;6.176;2023-11-21T00:02:19;24.55;;;9.50;;
82793;SDS011;72533;52.852;6.176;2023-11-21T00:04:45;26.33;;;11.48;;
82793;SDS011;72533;52.852;6.176;2023-11-21T00:07:10;23.48;;;10.48;;
82793;SDS011;72533;52.852;6.176;2023-11-21T00:09:35;23.47;;;9.93;;
82793;SDS011;72533;52.852;6.176;2023-11-21T00:12:01;24.02;;;10.85;;
82793;SDS011;72533;52.852;6.176;2023-11-21T00:14:27;28.25;;;10.43;;
82793;SDS011;72533;52.852;6.176;2023-11-21T00:16:53;26.90;;;9.63;;
82793;SDS011;72533;52.852;6.176;2023-11-21T00:19:18;26.67;;;11.17;;
82793;SDS011;72533;52.852;6.176;2023-11-21T00:21:43;21.23;;;9.73;;
82793;SDS011;72533;52.852;6.176;2023-11-21T00:24:10;21.70;;;9.15;;
82793;SDS011;72533;52.852;6.176;2023-11-21T00:26:38;28.92;;;10.82;;
82793;SDS011;72533;52.852;6.176;2023-11-21T00:29:04;25.25;;;8.57;;
82793;SDS011;72533;52.852;6.176;2023-11-21T00:31:32;24.00;;;9.00;;
82793;SDS011;72533;52.852;6.176;2023-11-21T00:33:58;25.60;;;9.07;;
82793;SDS011;72533;52.852;6.176;2023-11-21T00:36:23;22.73;;;9.55;;
82793;SDS011;72533;52.852;6.176;2023-11-21T00:38:48;22.58;;;10.35;;
82793;SDS011;72533;52.852;6.176;2023-11-21T00:41:14;22.90;;;9.05;;
82793;SDS011;72533;52.852;6.176;2023-11-21T00:43:39;26.33;;;8.63;;
82793;SDS011;72533;52.852;6.176;2023-11-21T00:46:05;24.60;;;8.53;;
82793;SDS011;72533;52.852;6.176;2023-11-21T00:48:33;18.80;;;7.88;;
82793;SDS011;72533;52.852;6.176;2023-11-21T00:50:58;24.67;;;7.20;;
82793;SDS011;72533;52.852;6.176;2023-11-21T00:53:24;20.92;;;8.10;;
82793;SDS011;72533;52.852;6.176;2023-11-21T00:55:49;20.30;;;10.70;;
82793;SDS011;72533;52.852;6.176;2023-11-21T00:58:17;24.08;;;8.18;;
82793;SDS011;72533;52.852;6.176;2023-11-21T01:00:42;24.20;;;8.68;;
82793;SDS011;72533;52.852;6.176;2023-11-21T01:03:08;22.13;;;9.02;;
82793;SDS011;72533;52.852;6.176;2023-11-21T01:05:34;25.17;;;8.23;;
82793;SDS011;72533;52.852;6.176;2023-11-21T01:07:59;22.73;;;7.38;;
82793;SDS011;72533;52.852;6.176;2023-11-21T01:10:25;25.00;;;9.02;;
82793;SDS011;72533;52.852;6.176;2023-11-21T01:12:50;23.13;;;7.23;;
82793;SDS011;72533;52.852;6.176;2023-11-21T01:15:16;19.45;;;8.70;;
82793;SDS011;72533;52.852;6.176;2023-11-21T01:17:41;21.65;;;7.78;;
82793;SDS011;72533;52.852;6.176;2023-11-21T01:20:07;24.08;;;9.73;;
82793;SDS011;72533;52.852;6.176;2023-11-21T01:22:37;22.00;;;9.98;;
82793;SDS011;72533;52.852;6.176;2023-11-21T01:25:03;24.48;;;8.88;;
82793;SDS011;72533;52.852;6.176;2023-11-21T01:27:32;24.88;;;9.38;;
82793;SDS011;72533;52.852;6.176;2023-11-21T01:29:57;20.80;;;9.27;;
82793;SDS011;72533;52.852;6.176;2023-11-21T01:32:22;26.73;;;9.53;;
82793;SDS011;72533;52.852;6.176;2023-11-21T01:34:50;27.23;;;9.50;;
82793;SDS011;72533;52.852;6.176;2023-11-21T01:37:15;27.20;;;9.00;;
82793;SDS011;72533;52.852;6.176;2023-11-21T01:39:42;23.30;;;9.02;;
82793;SDS011;72533;52.852;6.176;2023-11-21T01:42:09;19.65;;;8.02;;
82793;SDS011;72533;52.852;6.176;2023-11-21T01:44:36;23.25;;;9.27;;
82793;SDS011;72533;52.852;6.176;2023-11-21T01:47:01;28.80;;;9.18;;
82793;SDS011;72533;52.852;6.176;2023-11-21T01:51:55;30.43;;;8.80;;
82793;SDS011;72533;52.852;6.176;2023-11-21T01:54:21;23.33;;;8.40;;
82793;SDS011;72533;52.852;6.176;2023-11-21T01:56:47;22.65;;;10.65;;
82793;SDS011;72533;52.852;6.176;2023-11-21T01:59:14;20.48;;;7.70;;
82793;SDS011;72533;52.852;6.176;2023-11-21T02:01:45;29.63;;;10.32;;
82793;SDS011;72533;52.852;6.176;2023-11-21T02:04:12;27.17;;;8.52;;
82793;SDS011;72533;52.852;6.176;2023-11-21T02:06:37;26.65;;;10.52;;
82793;SDS011;72533;52.852;6.176;2023-11-21T02:09:04;23.63;;;9.35;;
82793;SDS011;72533;52.852;6.176;2023-11-21T02:11:30;29.27;;;10.20;;
82793;SDS011;72533;52.852;6.176;2023-11-21T02:13:55;26.77;;;10.73;;
82793;SDS011;72533;52.852;6.176;2023-11-21T02:16:22;21.38;;;8.55;;
82793;SDS011;72533;52.852;6.176;2023-11-21T02:18:48;23.48;;;11.05;;
82793;SDS011;72533;52.852;6.176;2023-11-21T02:21:13;23.70;;;9.82;;
82793;SDS011;72533;52.852;6.176;2023-11-21T02:23:39;25.00;;;11.20;;
82793;SDS011;72533;52.852;6.176;2023-11-21T02:26:09;25.13;;;8.80;;
82793;SDS011;72533;52.852;6.176;2023-11-21T02:28:34;24.52;;;9.05;;
82793;SDS011;72533;52.852;6.176;2023-11-21T02:31:00;24.77;;;8.77;;
82793;SDS011;72533;52.852;6.176;2023-11-21T02:33:27;21.33;;;8.05;;
82793;SDS011;72533;52.852;6.176;2023-11-21T02:35:53;22.50;;;8.27;;
82793;SDS011;72533;52.852;6.176;2023-11-21T02:38:19;24.15;;;8.93;;
82793;SDS011;72533;52.852;6.176;2023-11-21T02:40:45;26.05;;;8.95;;
82793;SDS011;72533;52.852;6.176;2023-11-21T02:43:11;19.50;;;8.87;;
82793;SDS011;72533;52.852;6.176;2023-11-21T02:45:36;22.50;;;8.70;;
82793;SDS011;72533;52.852;6.176;2023-11-21T02:48:01;23.30;;;8.63;;
82793;SDS011;72533;52.852;6.176;2023-11-21T02:50:27;19.70;;;8.80;;
82793;SDS011;72533;52.852;6.176;2023-11-21T02:52:52;19.53;;;10.17;;
82793;SDS011;72533;52.852;6.176;2023-11-21T02:55:17;25.95;;;7.63;;
82793;SDS011;72533;52.852;6.176;2023-11-21T02:57:43;25.25;;;9.55;;
82793;SDS011;72533;52.852;6.176;2023-11-21T03:00:08;24.13;;;11.37;;
82793;SDS011;72533;52.852;6.176;2023-11-21T03:02:35;22.23;;;9.48;;
82793;SDS011;72533;52.852;6.176;2023-11-21T03:05:04;27.55;;;10.82;;
82793;SDS011;72533;52.852;6.176;2023-11-21T03:07:30;26.30;;;8.85;;
82793;SDS011;72533;52.852;6.176;2023-11-21T03:09:55;21.70;;;9.27;;
82793;SDS011;72533;52.852;6.176;2023-11-21T03:12:21;22.60;;;8.85;;
82793;SDS011;72533;52.852;6.176;2023-11-21T03:14:46;20.13;;;9.27;;
82793;SDS011;72533;52.852;6.176;2023-11-21T03:17:12;24.10;;;9.40;;
82793;SDS011;72533;52.852;6.176;2023-11-21T03:19:41;21.13;;;9.75;;
82793;SDS011;72533;52.852;6.176;2023-11-21T03:22:06;22.48;;;9.20;;
82793;SDS011;72533;52.852;6.176;2023-11-21T03:24:32;21.52;;;9.52;;
82793;SDS011;72533;52.852;6.176;2023-11-21T03:26:57;21.60;;;9.93;;
82793;SDS011;72533;52.852;6.176;2023-11-21T03:29:22;26.40;;;8.60;;
82793;SDS011;72533;52.852;6.176;2023-11-21T03:31:48;23.07;;;10.07;;
82793;SDS011;72533;52.852;6.176;2023-11-21T03:34:19;23.67;;;9.63;;
82793;SDS011;72533;52.852;6.176;2023-11-21T03:36:48;28.25;;;9.48;;
82793;SDS011;72533;52.852;6.176;2023-11-21T03:39:14;21.15;;;9.45;;
82793;SDS011;72533;52.852;6.176;2023-11-21T03:41:39;23.53;;;8.57;;
82793;SDS011;72533;52.852;6.176;2023-11-21T03:44:04;22.92;;;9.88;;
82793;SDS011;72533;52.852;6.176;2023-11-21T03:46:30;28.08;;;9.80;;
82793;SDS011;72533;52.852;6.176;2023-11-21T03:48:55;23.70;;;10.97;;
82793;SDS011;72533;52.852;6.176;2023-11-21T03:51:21;26.10;;;10.38;;
82793;SDS011;72533;52.852;6.176;2023-11-21T03:53:46;34.22;;;11.50;;
82793;SDS011;72533;52.852;6.176;2023-11-21T03:56:12;24.80;;;9.87;;
82793;SDS011;72533;52.852;6.176;2023-11-21T03:58:38;29.85;;;11.25;;
82793;SDS011;72533;52.852;6.176;2023-11-21T04:01:04;36.17;;;11.37;;
82793;SDS011;72533;52.852;6.176;2023-11-21T04:03:29;32.47;;;11.57;;
82793;SDS011;72533;52.852;6.176;2023-11-21T04:05:55;35.87;;;11.67;;
82793;SDS011;72533;52.852;6.176;2023-11-21T04:08:20;28.30;;;12.73;;
82793;SDS011;72533;52.852;6.176;2023-11-21T04:10:45;27.80;;;11.00;;
82793;SDS011;72533;52.852;6.176;2023-11-21T04:13:11;27.10;;;13.00;;
82793;SDS011;72533;52.852;6.176;2023-11-21T04:15:36;35.13;;;12.37;;
82793;SDS011;72533;52.852;6.176;2023-11-21T04:18:01;29.23;;;11.53;;
82793;SDS011;72533;52.852;6.176;2023-11-21T04:20:26;32.53;;;11.13;;
82793;SDS011;72533;52.852;6.176;2023-11-21T04:22:52;41.20;;;11.50;;
82793;SDS011;72533;52.852;6.176;2023-11-21T04:25:17;29.03;;;12.53;;
82793;SDS011;72533;52.852;6.176;2023-11-21T04:27:43;35.47;;;12.05;;
82793;SDS011;72533;52.852;6.176;2023-11-21T04:30:12;34.75;;;11.65;;
82793;SDS011;72533;52.852;6.176;2023-11-21T04:32:38;40.03;;;13.07;;
82793;SDS011;72533;52.852;6.176;2023-11-21T04:35:04;34.93;;;12.63;;
82793;SDS011;72533;52.852;6.176;2023-11-21T04:37:30;34.72;;;12.88;;
82793;SDS011;72533;52.852;6.176;2023-11-21T04:39:55;33.43;;;10.77;;
82793;SDS011;72533;52.852;6.176;2023-11-21T04:42:21;43.38;;;12.43;;
82793;SDS011;72533;52.852;6.176;2023-11-21T04:44:46;33.88;;;12.18;;
82793;SDS011;72533;52.852;6.176;2023-11-21T04:47:12;46.83;;;14.35;;
82793;SDS011;72533;52.852;6.176;2023-11-21T04:49:37;35.20;;;12.93;;
82793;SDS011;72533;52.852;6.176;2023-11-21T04:52:02;45.97;;;14.20;;
82793;SDS011;72533;52.852;6.176;2023-11-21T04:54:30;39.95;;;13.00;;
82793;SDS011;72533;52.852;6.176;2023-11-21T04:56:56;41.25;;;12.57;;
82793;SDS011;72533;52.852;6.176;2023-11-21T04:59:21;40.60;;;13.07;;
82793;SDS011;72533;52.852;6.176;2023-11-21T05:04:14;35.00;;;12.10;;
82793;SDS011;72533;52.852;6.176;2023-11-21T05:06:40;32.93;;;11.60;;
82793;SDS011;72533;52.852;6.176;2023-11-21T05:09:05;37.37;;;11.97;;
82793;SDS011;72533;52.852;6.176;2023-11-21T05:11:30;37.23;;;13.13;;
82793;SDS011;72533;52.852;6.176;2023-11-21T05:13:57;48.20;;;14.68;;
82793;SDS011;72533;52.852;6.176;2023-11-21T05:16:25;42.85;;;14.73;;
82793;SDS011;72533;52.852;6.176;2023-11-21T05:18:50;36.03;;;13.35;;
82793;SDS011;72533;52.852;6.176;2023-11-21T05:21:16;40.88;;;13.98;;
82793;SDS011;72533;52.852;6.176;2023-11-21T05:23:41;40.90;;;14.27;;
82793;SDS011;72533;52.852;6.176;2023-11-21T05:26:06;42.37;;;14.60;;
82793;SDS011;72533;52.852;6.176;2023-11-21T05:28:32;44.80;;;14.75;;
82793;SDS011;72533;52.852;6.176;2023-11-21T05:30:57;43.73;;;13.90;;
82793;SDS011;72533;52.852;6.176;2023-11-21T05:33:23;40.13;;;14.40;;
82793;SDS011;72533;52.852;6.176;2023-11-21T05:35:48;46.47;;;15.80;;
82793;SDS011;72533;52.852;6.176;2023-11-21T05:38:14;46.10;;;15.40;;
82793;SDS011;72533;52.852;6.176;2023-11-21T05:40:39;37.13;;;13.38;;
82793;SDS011;72533;52.852;6.176;2023-11-21T05:43:04;44.03;;;15.20;;
82793;SDS011;72533;52.852;6.176;2023-11-21T05:45:30;41.35;;;13.80;;
82793;SDS011;72533;52.852;6.176;2023-11-21T05:47:56;37.55;;;13.52;;
82793;SDS011;72533;52.852;6.176;2023-11-21T05:50:22;48.85;;;16.55;;
82793;SDS011;72533;52.852;6.176;2023-11-21T05:52:48;44.05;;;15.00;;
82793;SDS011;72533;52.852;6.176;2023-11-21T05:55:13;41.47;;;15.23;;
82793;SDS011;72533;52.852;6.176;2023-11-21T05:57:39;41.20;;;14.93;;
82793;SDS011;72533;52.852;6.176;2023-11-21T06:00:06;36.70;;;14.50;;
82793;SDS011;72533;52.852;6.176;2023-11-21T06:02:37;47.70;;;17.27;;
82793;SDS011;72533;52.852;6.176;2023-11-21T06:05:03;45.22;;;15.38;;
82793;SDS011;72533;52.852;6.176;2023-11-21T06:07:29;44.20;;;15.70;;
82793;SDS011;72533;52.852;6.176;2023-11-21T06:09:55;43.08;;;16.38;;
82793;SDS011;72533;52.852;6.176;2023-11-21T06:12:21;42.97;;;15.43;;
82793;SDS011;72533;52.852;6.176;2023-11-21T06:14:46;38.57;;;14.13;;
82793;SDS011;72533;52.852;6.176;2023-11-21T06:17:13;39.60;;;14.65;;
82793;SDS011;72533;52.852;6.176;2023-11-21T06:19:38;38.78;;;12.35;;
82793;SDS011;72533;52.852;6.176;2023-11-21T06:22:03;44.33;;;17.43;;
82793;SDS011;72533;52.852;6.176;2023-11-21T06:24:29;41.80;;;14.50;;
82793;SDS011;72533;52.852;6.176;2023-11-21T06:26:54;35.83;;;11.63;;
82793;SDS011;72533;52.852;6.176;2023-11-21T06:29:19;32.40;;;11.77;;
82793;SDS011;72533;52.852;6.176;2023-11-21T06:31:45;32.70;;;11.67;;
82793;SDS011;72533;52.852;6.176;2023-11-21T06:34:11;31.83;;;12.27;;
82793;SDS011;72533;52.852;6.176;2023-11-21T06:36:37;36.47;;;13.75;;
82793;SDS011;72533;52.852;6.176;2023-11-21T06:39:02;35.60;;;12.37;;
82793;SDS011;72533;52.852;6.176;2023-11-21T06:41:31;32.50;;;11.43;;
82793;SDS011;72533;52.852;6.176;2023-11-21T06:43:57;31.75;;;10.32;;
82793;SDS011;72533;52.852;6.176;2023-11-21T06:46:24;26.83;;;9.73;;
82793;SDS011;72533;52.852;6.176;2023-11-21T06:48:49;24.23;;;11.50;;
82793;SDS011;72533;52.852;6.176;2023-11-21T06:51:15;24.63;;;8.82;;
82793;SDS011;72533;52.852;6.176;2023-11-21T06:53:40;23.83;;;8.40;;
82793;SDS011;72533;52.852;6.176;2023-11-21T06:56:14;23.77;;;8.25;;
82793;SDS011;72533;52.852;6.176;2023-11-21T06:58:41;18.70;;;7.32;;
82793;SDS011;72533;52.852;6.176;2023-11-21T07:01:06;21.55;;;8.27;;
82793;SDS011;72533;52.852;6.176;2023-11-21T07:03:32;21.42;;;8.60;;
82793;SDS011;72533;52.852;6.176;2023-11-21T07:05:57;29.80;;;12.20;;
82793;SDS011;72533;52.852;6.176;2023-11-21T07:08:22;24.77;;;9.45;;
82793;SDS011;72533;52.852;6.176;2023-11-21T07:10:48;23.03;;;8.67;;
82793;SDS011;72533;52.852;6.176;2023-11-21T07:13:14;19.92;;;8.02;;
82793;SDS011;72533;52.852;6.176;2023-11-21T07:15:40;28.25;;;12.93;;
82793;SDS011;72533;52.852;6.176;2023-11-21T07:18:05;26.38;;;9.02;;
82793;SDS011;72533;52.852;6.176;2023-11-21T07:20:32;27.67;;;9.43;;
82793;SDS011;72533;52.852;6.176;2023-11-21T07:22:58;26.80;;;10.70;;
82793;SDS011;72533;52.852;6.176;2023-11-21T07:25:24;26.38;;;10.55;;
82793;SDS011;72533;52.852;6.176;2023-11-21T07:27:49;32.47;;;12.50;;
82793;SDS011;72533;52.852;6.176;2023-11-21T07:30:15;26.57;;;9.77;;
82793;SDS011;72533;52.852;6.176;2023-11-21T07:32:40;26.20;;;9.85;;
82793;SDS011;72533;52.852;6.176;2023-11-21T07:35:06;27.70;;;9.98;;
82793;SDS011;72533;52.852;6.176;2023-11-21T07:37:33;23.50;;;9.88;;
82793;SDS011;72533;52.852;6.176;2023-11-21T07:39:58;28.07;;;9.17;;
82793;SDS011;72533;52.852;6.176;2023-11-21T07:42:24;22.73;;;9.15;;
82793;SDS011;72533;52.852;6.176;2023-11-21T07:44:51;23.27;;;9.85;;
82793;SDS011;72533;52.852;6.176;2023-11-21T07:47:17;20.60;;;7.85;;
82793;SDS011;72533;52.852;6.176;2023-11-21T07:49:42;25.27;;;10.15;;
82793;SDS011;72533;52.852;6.176;2023-11-21T07:52:09;19.35;;;9.32;;
82793;SDS011;72533;52.852;6.176;2023-11-21T07:54:35;18.75;;;7.60;;
82793;SDS011;72533;52.852;6.176;2023-11-21T07:57:00;20.17;;;8.35;;
82793;SDS011;72533;52.852;6.176;2023-11-21T07:59:26;18.95;;;8.38;;
82793;SDS011;72533;52.852;6.176;2023-11-21T08:01:51;18.57;;;7.17;;
82793;SDS011;72533;52.852;6.176;2023-11-21T08:04:17;18.83;;;7.13;;
82793;SDS011;72533;52.852;6.176;2023-11-21T08:06:43;19.23;;;7.22;;
82793;SDS011;72533;52.852;6.176;2023-11-21T08:09:08;20.03;;;6.70;;
82793;SDS011;72533;52.852;6.176;2023-11-21T08:11:34;18.70;;;7.00;;
82793;SDS011;72533;52.852;6.176;2023-11-21T08:13:59;19.67;;;8.67;;
82793;SDS011;72533;52.852;6.176;2023-11-21T08:16:25;20.85;;;8.00;;
82793;SDS011;72533;52.852;6.176;2023-11-21T08:18:50;16.00;;;7.72;;
82793;SDS011;72533;52.852;6.176;2023-11-21T08:21:16;19.15;;;7.70;;
82793;SDS011;72533;52.852;6.176;2023-11-21T08:23:41;25.40;;;8.02;;
82793;SDS011;72533;52.852;6.176;2023-11-21T08:26:06;20.50;;;8.25;;
82793;SDS011;72533;52.852;6.176;2023-11-21T08:28:33;20.58;;;7.25;;
82793;SDS011;72533;52.852;6.176;2023-11-21T08:31:00;18.75;;;8.57;;
82793;SDS011;72533;52.852;6.176;2023-11-21T08:33:25;19.75;;;8.65;;
82793;SDS011;72533;52.852;6.176;2023-11-21T08:35:51;22.60;;;8.80;;
82793;SDS011;72533;52.852;6.176;2023-11-21T08:38:16;17.23;;;8.93;;
82793;SDS011;72533;52.852;6.176;2023-11-21T08:40:42;19.10;;;7.38;;
82793;SDS011;72533;52.852;6.176;2023-11-21T08:43:08;18.95;;;7.93;;
82793;SDS011;72533;52.852;6.176;2023-11-21T08:45:33;21.10;;;9.25;;
82793;SDS011;72533;52.852;6.176;2023-11-21T08:47:59;24.83;;;9.05;;
82793;SDS011;72533;52.852;6.176;2023-11-21T08:50:27;22.95;;;10.38;;
82793;SDS011;72533;52.852;6.176;2023-11-21T08:52:53;23.70;;;9.07;;
82793;SDS011;72533;52.852;6.176;2023-11-21T08:55:18;25.58;;;9.95;;
82793;SDS011;72533;52.852;6.176;2023-11-21T08:57:45;21.27;;;9.32;;
82793;SDS011;72533;52.852;6.176;2023-11-21T09:00:12;19.15;;;7.95;;
82793;SDS011;72533;52.852;6.176;2023-11-21T09:02:40;26.77;;;11.48;;
82793;SDS011;72533;52.852;6.176;2023-11-21T09:05:09;27.75;;;10.48;;
82793;SDS011;72533;52.852;6.176;2023-11-21T09:07:35;23.10;;;9.27;;
82793;SDS011;72533;52.852;6.176;2023-11-21T09:10:02;25.77;;;9.93;;
82793;SDS011;72533;52.852;6.176;2023-11-21T09:12:28;29.38;;;10.77;;
82793;SDS011;72533;52.852;6.176;2023-11-21T09:14:53;25.80;;;9.27;;
82793;SDS011;72533;52.852;6.176;2023-11-21T09:17:18;26.55;;;9.32;;
82793;SDS011;72533;52.852;6.176;2023-11-21T09:19:44;21.98;;;9.05;;
82793;SDS011;72533;52.852;6.176;2023-11-21T09:22:12;23.15;;;7.88;;
82793;SDS011;72533;52.852;6.176;2023-11-21T09:24:37;25.08;;;11.13;;
82793;SDS011;72533;52.852;6.176;2023-11-21T09:27:03;26.20;;;10.40;;
82793;SDS011;72533;52.852;6.176;2023-11-21T09:29:30;21.17;;;8.70;;
82793;SDS011;72533;52.852;6.176;2023-11-21T09:31:55;19.73;;;7.63;;
82793;SDS011;72533;52.852;6.176;2023-11-21T09:34:24;20.45;;;7.78;;
82793;SDS011;72533;52.852;6.176;2023-11-21T09:36:50;16.63;;;6.30;;
82793;SDS011;72533;52.852;6.176;2023-11-21T09:39:15;15.87;;;6.17;;
82793;SDS011;72533;52.852;6.176;2023-11-21T09:44:09;18.40;;;7.32;;
82793;SDS011;72533;52.852;6.176;2023-11-21T09:46:39;13.50;;;6.90;;
82793;SDS011;72533;52.852;6.176;2023-11-21T09:49:07;14.90;;;7.53;;
82793;SDS011;72533;52.852;6.176;2023-11-21T09:51:37;19.05;;;7.10;;
82793;SDS011;72533;52.852;6.176;2023-11-21T09:54:13;19.88;;;8.48;;
82793;SDS011;72533;52.852;6.176;2023-11-21T09:56:41;21.33;;;10.60;;
82793;SDS011;72533;52.852;6.176;2023-11-21T09:59:07;28.10;;;13.38;;
82793;SDS011;72533;52.852;6.176;2023-11-21T10:01:37;21.85;;;10.93;;
82793;SDS011;72533;52.852;6.176;2023-11-21T10:04:04;20.42;;;10.25;;
82793;SDS011;72533;52.852;6.176;2023-11-21T10:06:31;19.33;;;9.15;;
82793;SDS011;72533;52.852;6.176;2023-11-21T10:08:56;21.67;;;9.63;;
82793;SDS011;72533;52.852;6.176;2023-11-21T10:11:25;24.85;;;11.38;;
82793;SDS011;72533;52.852;6.176;2023-11-21T10:13:52;25.20;;;12.25;;
82793;SDS011;72533;52.852;6.176;2023-11-21T10:16:20;22.75;;;12.07;;
82793;SDS011;72533;52.852;6.176;2023-11-21T10:18:48;22.08;;;12.90;;
82793;SDS011;72533;52.852;6.176;2023-11-21T10:21:14;23.30;;;10.40;;
82793;SDS011;72533;52.852;6.176;2023-11-21T10:23:39;23.95;;;12.95;;
82793;SDS011;72533;52.852;6.176;2023-11-21T10:26:05;24.23;;;13.93;;
82793;SDS011;72533;52.852;6.176;2023-11-21T10:28:34;22.63;;;12.63;;
82793;SDS011;72533;52.852;6.176;2023-11-21T10:31:02;23.73;;;14.13;;
82793;SDS011;72533;52.852;6.176;2023-11-21T10:33:27;19.60;;;10.23;;
82793;SDS011;72533;52.852;6.176;2023-11-21T10:35:53;23.13;;;10.75;;
82793;SDS011;72533;52.852;6.176;2023-11-21T10:38:20;23.83;;;11.25;;
82793;SDS011;72533;52.852;6.176;2023-11-21T10:40:49;24.20;;;11.07;;
82793;SDS011;72533;52.852;6.176;2023-11-21T10:43:15;25.20;;;13.68;;
82793;SDS011;72533;52.852;6.176;2023-11-21T10:45:41;22.27;;;12.13;;
82793;SDS011;72533;52.852;6.176;2023-11-21T10:48:08;22.45;;;11.70;;
82793;SDS011;72533;52.852;6.176;2023-11-21T10:50:40;24.00;;;11.50;;
82793;SDS011;72533;52.852;6.176;2023-11-21T10:53:05;22.20;;;10.93;;
82793;SDS011;72533;52.852;6.176;2023-11-21T10:55:32;21.73;;;10.52;;
82793;SDS011;72533;52.852;6.176;2023-11-21T10:57:58;24.98;;;12.10;;
82793;SDS011;72533;52.852;6.176;2023-11-21T11:00:27;23.20;;;10.93;;
82793;SDS011;72533;52.852;6.176;2023-11-21T11:02:53;24.98;;;12.00;;
82793;SDS011;72533;52.852;6.176;2023-11-21T11:05:22;24.35;;;11.90;;
82793;SDS011;72533;52.852;6.176;2023-11-21T11:07:50;22.23;;;11.43;;
82793;SDS011;72533;52.852;6.176;2023-11-21T11:10:20;18.20;;;11.35;;
82793;SDS011;72533;52.852;6.176;2023-11-21T11:12:47;22.65;;;11.77;;
82793;SDS011;72533;52.852;6.176;2023-11-21T11:15:14;23.90;;;11.30;;
82793;SDS011;72533;52.852;6.176;2023-11-21T11:17:40;21.90;;;12.60;;
82793;SDS011;72533;52.852;6.176;2023-11-21T11:20:07;23.60;;;12.23;;
82793;SDS011;72533;52.852;6.176;2023-11-21T11:22:56;22.75;;;12.65;;
82793;SDS011;72533;52.852;6.176;2023-11-21T11:28:18;19.83;;;10.73;;
82793;SDS011;72533;52.852;6.176;2023-11-21T11:31:04;20.77;;;11.13;;
82793;SDS011;72533;52.852;6.176;2023-11-21T11:33:41;23.17;;;11.15;;
82793;SDS011;72533;52.852;6.176;2023-11-21T11:38:57;20.13;;;10.80;;
82793;SDS011;72533;52.852;6.176;2023-11-21T11:41:24;25.45;;;14.32;;
82793;SDS011;72533;52.852;6.176;2023-11-21T11:43:54;23.77;;;10.10;;
82793;SDS011;72533;52.852;6.176;2023-11-21T11:46:20;19.15;;;10.70;;
82793;SDS011;72533;52.852;6.176;2023-11-21T11:51:14;23.52;;;11.98;;
82793;SDS011;72533;52.852;6.176;2023-11-21T11:56:27;16.75;;;9.05;;
82793;SDS011;72533;52.852;6.176;2023-11-21T11:58:55;12.73;;;7.30;;
82793;SDS011;72533;52.852;6.176;2023-11-21T12:01:22;15.63;;;7.88;;
82793;SDS011;72533;52.852;6.176;2023-11-21T12:06:59;15.88;;;7.43;;
82793;SDS011;72533;52.852;6.176;2023-11-21T12:09:27;18.33;;;8.43;;
82793;SDS011;72533;52.852;6.176;2023-11-21T12:11:53;16.80;;;8.20;;
82793;SDS011;72533;52.852;6.176;2023-11-21T12:16:46;12.57;;;5.87;;
82793;SDS011;72533;52.852;6.176;2023-11-21T12:19:13;13.88;;;6.75;;
82793;SDS011;72533;52.852;6.176;2023-11-21T12:21:38;13.40;;;7.28;;
82793;SDS011;72533;52.852;6.176;2023-11-21T12:24:06;13.95;;;7.13;;
82793;SDS011;72533;52.852;6.176;2023-11-21T12:26:33;13.20;;;7.07;;
82793;SDS011;72533;52.852;6.176;2023-11-21T12:28:59;12.75;;;5.68;;
82793;SDS011;72533;52.852;6.176;2023-11-21T12:31:26;12.98;;;9.48;;
82793;SDS011;72533;52.852;6.176;2023-11-21T12:33:51;12.50;;;7.03;;
82793;SDS011;72533;52.852;6.176;2023-11-21T12:36:17;12.90;;;7.73;;
82793;SDS011;72533;52.852;6.176;2023-11-21T12:38:42;12.70;;;6.10;;
82793;SDS011;72533;52.852;6.176;2023-11-21T12:41:09;11.98;;;5.82;;
82793;SDS011;72533;52.852;6.176;2023-11-21T12:43:35;12.63;;;6.25;;
82793;SDS011;72533;52.852;6.176;2023-11-21T12:46:04;11.57;;;5.43;;
82793;SDS011;72533;52.852;6.176;2023-11-21T12:48:34;12.38;;;6.75;;
82793;SDS011;72533;52.852;6.176;2023-11-21T12:51:09;12.48;;;7.10;;
82793;SDS011;72533;52.852;6.176;2023-11-21T12:53:34;10.90;;;5.95;;
82793;SDS011;72533;52.852;6.176;2023-11-21T12:56:06;11.40;;;5.63;;
82793;SDS011;72533;52.852;6.176;2023-11-21T12:58:34;13.68;;;7.43;;
82793;SDS011;72533;52.852;6.176;2023-11-21T13:01:00;10.95;;;5.18;;
82793;SDS011;72533;52.852;6.176;2023-11-21T13:03:29;11.75;;;5.75;;
82793;SDS011;72533;52.852;6.176;2023-11-21T13:05:55;10.52;;;6.15;;
82793;SDS011;72533;52.852;6.176;2023-11-21T13:08:22;10.63;;;5.15;;
82793;SDS011;72533;52.852;6.176;2023-11-21T13:10:49;13.18;;;6.70;;
82793;SDS011;72533;52.852;6.176;2023-11-21T13:13:15;11.93;;;5.93;;
82793;SDS011;72533;52.852;6.176;2023-11-21T13:18:14;10.35;;;4.85;;
82793;SDS011;72533;52.852;6.176;2023-11-21T13:20:40;11.52;;;5.55;;
82793;SDS011;72533;52.852;6.176;2023-11-21T13:23:08;10.70;;;5.50;;
82793;SDS011;72533;52.852;6.176;2023-11-21T13:25:34;11.23;;;4.78;;
82793;SDS011;72533;52.852;6.176;2023-11-21T13:27:59;12.75;;;7.68;;
82793;SDS011;72533;52.852;6.176;2023-11-21T13:30:28;12.77;;;5.72;;
82793;SDS011;72533;52.852;6.176;2023-11-21T13:33:00;10.77;;;5.85;;
82793;SDS011;72533;52.852;6.176;2023-11-21T13:35:34;9.55;;;4.65;;
82793;SDS011;72533;52.852;6.176;2023-11-21T13:38:12;9.60;;;6.72;;
82793;SDS011;72533;52.852;6.176;2023-11-21T13:40:48;11.07;;;4.88;;
82793;SDS011;72533;52.852;6.176;2023-11-21T13:43:17;11.40;;;6.05;;
82793;SDS011;72533;52.852;6.176;2023-11-21T13:45:45;10.23;;;5.30;;
82793;SDS011;72533;52.852;6.176;2023-11-21T13:48:11;10.48;;;5.25;;
82793;SDS011;72533;52.852;6.176;2023-11-21T13:50:48;10.13;;;5.38;;
82793;SDS011;72533;52.852;6.176;2023-11-21T13:53:32;10.63;;;4.93;;
82793;SDS011;72533;52.852;6.176;2023-11-21T13:55:58;12.60;;;5.40;;
82793;SDS011;72533;52.852;6.176;2023-11-21T13:58:23;9.93;;;4.57;;
82793;SDS011;72533;52.852;6.176;2023-11-21T14:01:07;10.27;;;5.28;;
82793;SDS011;72533;52.852;6.176;2023-11-21T14:03:51;10.60;;;4.60;;
82793;SDS011;72533;52.852;6.176;2023-11-21T14:06:22;8.98;;;4.78;;
82793;SDS011;72533;52.852;6.176;2023-11-21T14:08:57;11.63;;;4.55;;
82793;SDS011;72533;52.852;6.176;2023-11-21T14:11:23;11.10;;;5.37;;
82793;SDS011;72533;52.852;6.176;2023-11-21T14:13:49;10.32;;;4.90;;
82793;SDS011;72533;52.852;6.176;2023-11-21T14:16:15;11.50;;;5.35;;
82793;SDS011;72533;52.852;6.176;2023-11-21T14:18:42;9.98;;;4.82;;
82793;SDS011;72533;52.852;6.176;2023-11-21T14:21:15;9.02;;;4.78;;
82793;SDS011;72533;52.852;6.176;2023-11-21T14:23:41;11.85;;;6.03;;
82793;SDS011;72533;52.852;6.176;2023-11-21T14:26:06;9.02;;;3.60;;
82793;SDS011;72533;52.852;6.176;2023-11-21T14:28:32;8.95;;;5.43;;
82793;SDS011;72533;52.852;6.176;2023-11-21T14:31:00;11.85;;;6.68;;
82793;SDS011;72533;52.852;6.176;2023-11-21T14:33:25;11.83;;;5.83;;
82793;SDS011;72533;52.852;6.176;2023-11-21T14:35:52;8.88;;;5.00;;
82793;SDS011;72533;52.852;6.176;2023-11-21T14:38:17;9.13;;;5.13;;
82793;SDS011;72533;52.852;6.176;2023-11-21T14:40:43;8.25;;;4.10;;
82793;SDS011;72533;52.852;6.176;2023-11-21T14:43:08;8.87;;;4.10;;
82793;SDS011;72533;52.852;6.176;2023-11-21T14:45:33;12.57;;;5.68;;
82793;SDS011;72533;52.852;6.176;2023-11-21T14:47:59;9.70;;;5.18;;
82793;SDS011;72533;52.852;6.176;2023-11-21T14:50:33;10.25;;;4.22;;
82793;SDS011;72533;52.852;6.176;2023-11-21T14:53:11;10.10;;;4.25;;
82793;SDS011;72533;52.852;6.176;2023-11-21T14:55:38;12.07;;;4.97;;